N33TZ KVNY-KTRM
Flight info
| Callsign | N33TZ |
|---|---|
| Flight time | 0h 34m |
| Altitude | 17000 |
| Route | NUAL1 PMD V137 PSP DCT |
| Aircraft | CL60/M-SBDE1E2E3FGHIJ1J4J5J7M3RWXYZ/LB1V1D1 |
Departure
| Time | 2026-04-26 05:36 |
|---|---|
| Airport | Van Nuys Airport (KVNY) |
Arrival
| Time | 2026-04-26 06:11 |
|---|---|
| Airport | Jacqueline Cochran Regional Airport (KTRM) |
| Time | Latitude | Longitude | Altitude | Speed | Heading |
|---|---|---|---|---|---|
| 2026-04-26 05:10 | 34.20293 | -118.49157 | 764 ft | 0 kts | 0° |
| 2026-04-26 05:25 | 34.20310 | -118.49143 | 765 ft | 6 kts | 50° |
| 2026-04-26 05:25 | 34.20344 | -118.49098 | 766 ft | 8 kts | 28° |
| 2026-04-26 05:25 | 34.20415 | -118.49101 | 768 ft | 12 kts | 355° |
| 2026-04-26 05:25 | 34.20498 | -118.49109 | 770 ft | 11 kts | 355° |
| 2026-04-26 05:26 | 34.20586 | -118.49116 | 772 ft | 13 kts | 356° |
| 2026-04-26 05:26 | 34.20682 | -118.49126 | 775 ft | 12 kts | 357° |
| 2026-04-26 05:26 | 34.20776 | -118.49135 | 777 ft | 12 kts | 355° |
| 2026-04-26 05:26 | 34.20868 | -118.49143 | 779 ft | 14 kts | 356° |
| 2026-04-26 05:27 | 34.20951 | -118.49151 | 781 ft | 8 kts | 356° |
| 2026-04-26 05:27 | 34.21022 | -118.49158 | 782 ft | 12 kts | 355° |
| 2026-04-26 05:27 | 34.21117 | -118.49167 | 784 ft | 15 kts | 356° |
| 2026-04-26 05:27 | 34.21215 | -118.49176 | 787 ft | 12 kts | 355° |
| 2026-04-26 05:28 | 34.21304 | -118.49184 | 790 ft | 13 kts | 355° |
| 2026-04-26 05:28 | 34.21400 | -118.49193 | 793 ft | 14 kts | 356° |
| 2026-04-26 05:28 | 34.21492 | -118.49203 | 795 ft | 11 kts | 351° |
| 2026-04-26 05:28 | 34.21570 | -118.49217 | 796 ft | 10 kts | 356° |
| 2026-04-26 05:29 | 34.21650 | -118.49224 | 798 ft | 11 kts | 357° |
| 2026-04-26 05:29 | 34.21737 | -118.49228 | 799 ft | 13 kts | 359° |
| 2026-04-26 05:29 | 34.21806 | -118.49232 | 801 ft | 9 kts | 355° |
| 2026-04-26 05:29 | 34.21860 | -118.49226 | 802 ft | 5 kts | 39° |
| 2026-04-26 05:30 | 34.21866 | -118.49217 | 802 ft | 0 kts | 58° |
| 2026-04-26 05:35 | 34.21873 | -118.49203 | 802 ft | 6 kts | 67° |
| 2026-04-26 05:35 | 34.21871 | -118.49127 | 802 ft | 8 kts | 131° |
| 2026-04-26 05:35 | 34.21659 | -118.49103 | 798 ft | 82 kts | 176° |
| 2026-04-26 05:36 | 34.20718 | -118.49000 | 929 ft | 169 kts | 176° |
| 2026-04-26 05:36 | 34.19471 | -118.48849 | 1823 ft | 194 kts | 175° |
| 2026-04-26 05:36 | 34.18095 | -118.48679 | 3066 ft | 213 kts | 174° |
| 2026-04-26 05:36 | 34.16604 | -118.47845 | 3730 ft | 269 kts | 141° |
| 2026-04-26 05:37 | 34.15389 | -118.45998 | 3941 ft | 286 kts | 125° |
| 2026-04-26 05:37 | 34.14344 | -118.44012 | 3977 ft | 274 kts | 124° |
| 2026-04-26 05:37 | 34.13322 | -118.42065 | 3987 ft | 274 kts | 125° |
| 2026-04-26 05:37 | 34.12293 | -118.40102 | 3988 ft | 275 kts | 124° |
| 2026-04-26 05:38 | 34.11259 | -118.38133 | 3988 ft | 275 kts | 124° |
| 2026-04-26 05:38 | 34.10241 | -118.36198 | 3989 ft | 275 kts | 124° |
| 2026-04-26 05:38 | 34.09184 | -118.34184 | 4107 ft | 295 kts | 123° |
| 2026-04-26 05:38 | 34.08448 | -118.31892 | 5448 ft | 303 kts | 100° |
| 2026-04-26 05:39 | 34.08496 | -118.29433 | 7145 ft | 298 kts | 78° |
| 2026-04-26 05:39 | 34.09266 | -118.27177 | 8523 ft | 300 kts | 55° |
| 2026-04-26 05:39 | 34.10738 | -118.25433 | 9777 ft | 302 kts | 28° |
| 2026-04-26 05:39 | 34.12671 | -118.24515 | 10967 ft | 305 kts | 12° |
| 2026-04-26 05:40 | 34.14825 | -118.23763 | 11361 ft | 341 kts | 12° |
| 2026-04-26 05:40 | 34.17196 | -118.22926 | 12014 ft | 363 kts | 12° |
| 2026-04-26 05:40 | 34.19637 | -118.22056 | 12914 ft | 375 kts | 12° |
| 2026-04-26 05:40 | 34.22166 | -118.21152 | 13933 ft | 381 kts | 12° |
| 2026-04-26 05:41 | 34.24739 | -118.20232 | 14947 ft | 387 kts | 12° |
| 2026-04-26 05:41 | 34.27310 | -118.19311 | 15903 ft | 392 kts | 12° |
| 2026-04-26 05:41 | 34.29980 | -118.18356 | 16624 ft | 402 kts | 12° |
| 2026-04-26 05:41 | 34.32686 | -118.17384 | 16922 ft | 405 kts | 12° |
| 2026-04-26 05:42 | 34.35405 | -118.16405 | 16993 ft | 404 kts | 11° |
| 2026-04-26 05:42 | 34.38086 | -118.15438 | 16981 ft | 401 kts | 12° |
| 2026-04-26 05:42 | 34.40769 | -118.14471 | 16974 ft | 399 kts | 12° |
| 2026-04-26 05:42 | 34.43469 | -118.13496 | 16964 ft | 399 kts | 12° |
| 2026-04-26 05:43 | 34.46127 | -118.12537 | 16932 ft | 398 kts | 12° |
| 2026-04-26 05:43 | 34.48798 | -118.11573 | 16882 ft | 397 kts | 12° |
| 2026-04-26 05:43 | 34.51426 | -118.10358 | 16940 ft | 402 kts | 24° |
| 2026-04-26 05:43 | 34.53777 | -118.08390 | 16934 ft | 423 kts | 39° |
| 2026-04-26 05:44 | 34.55755 | -118.05633 | 16935 ft | 445 kts | 55° |
| 2026-04-26 05:44 | 34.57106 | -118.02190 | 16940 ft | 455 kts | 72° |
| 2026-04-26 05:44 | 34.57584 | -117.98421 | 16922 ft | 454 kts | 91° |
| 2026-04-26 05:44 | 34.57115 | -117.94641 | 16929 ft | 447 kts | 109° |
| 2026-04-26 05:45 | 34.55866 | -117.91244 | 16926 ft | 442 kts | 122° |
| 2026-04-26 05:45 | 34.54374 | -117.87946 | 16925 ft | 444 kts | 122° |
| 2026-04-26 05:45 | 34.52887 | -117.84645 | 16886 ft | 446 kts | 122° |
| 2026-04-26 05:45 | 34.51400 | -117.81345 | 16903 ft | 446 kts | 122° |
| 2026-04-26 05:46 | 34.49910 | -117.78042 | 16868 ft | 445 kts | 122° |
| 2026-04-26 05:46 | 34.48435 | -117.74773 | 16875 ft | 443 kts | 122° |
| 2026-04-26 05:46 | 34.46940 | -117.71465 | 16878 ft | 445 kts | 122° |
| 2026-04-26 05:46 | 34.45451 | -117.68174 | 16909 ft | 448 kts | 122° |
| 2026-04-26 05:47 | 34.43928 | -117.64809 | 16887 ft | 451 kts | 122° |
| 2026-04-26 05:47 | 34.42430 | -117.61505 | 16903 ft | 450 kts | 122° |
| 2026-04-26 05:47 | 34.40929 | -117.58194 | 16886 ft | 450 kts | 122° |
| 2026-04-26 05:47 | 34.39410 | -117.54845 | 17006 ft | 446 kts | 123° |
| 2026-04-26 05:48 | 34.37903 | -117.51533 | 16892 ft | 453 kts | 122° |
| 2026-04-26 05:48 | 34.36388 | -117.48201 | 16915 ft | 449 kts | 122° |
| 2026-04-26 05:48 | 34.34878 | -117.44881 | 16982 ft | 450 kts | 122° |
| 2026-04-26 05:48 | 34.33366 | -117.41586 | 16983 ft | 454 kts | 123° |
| 2026-04-26 05:49 | 34.31793 | -117.38197 | 16870 ft | 454 kts | 123° |
| 2026-04-26 05:49 | 34.28727 | -117.31594 | 16893 ft | 450 kts | 124° |
| 2026-04-26 05:49 | 34.27198 | -117.28303 | 17005 ft | 448 kts | 124° |
| 2026-04-26 05:50 | 34.25645 | -117.24970 | 16772 ft | 456 kts | 124° |
| 2026-04-26 05:50 | 34.24090 | -117.21638 | 16406 ft | 454 kts | 124° |
| 2026-04-26 05:50 | 34.22536 | -117.18310 | 16028 ft | 446 kts | 123° |
| 2026-04-26 05:50 | 34.21021 | -117.15064 | 15662 ft | 441 kts | 123° |
| 2026-04-26 05:51 | 34.19517 | -117.11845 | 15271 ft | 438 kts | 124° |
| 2026-04-26 05:51 | 34.18020 | -117.08646 | 15016 ft | 436 kts | 124° |
| 2026-04-26 05:51 | 34.16524 | -117.05450 | 14979 ft | 436 kts | 124° |
| 2026-04-26 05:51 | 34.15038 | -117.02278 | 14982 ft | 435 kts | 124° |
| 2026-04-26 05:52 | 34.13535 | -116.99075 | 14929 ft | 438 kts | 124° |
| 2026-04-26 05:52 | 34.12017 | -116.95842 | 14887 ft | 437 kts | 123° |
| 2026-04-26 05:52 | 34.10518 | -116.92651 | 14911 ft | 435 kts | 124° |
| 2026-04-26 05:52 | 34.09016 | -116.89458 | 14938 ft | 436 kts | 124° |
| 2026-04-26 05:53 | 34.07503 | -116.86247 | 14948 ft | 437 kts | 124° |
| 2026-04-26 05:53 | 34.05997 | -116.83052 | 14919 ft | 440 kts | 124° |
| 2026-04-26 05:53 | 34.04491 | -116.79855 | 14930 ft | 439 kts | 124° |
| 2026-04-26 05:53 | 34.02976 | -116.76646 | 14924 ft | 440 kts | 123° |
| 2026-04-26 05:54 | 34.01443 | -116.73402 | 14862 ft | 439 kts | 123° |
| 2026-04-26 05:54 | 33.99927 | -116.70200 | 14948 ft | 441 kts | 123° |
| 2026-04-26 05:54 | 33.98382 | -116.66957 | 14925 ft | 442 kts | 124° |
| 2026-04-26 05:54 | 33.96870 | -116.63765 | 14959 ft | 440 kts | 123° |
| 2026-04-26 05:55 | 33.95323 | -116.60520 | 14651 ft | 443 kts | 123° |
| 2026-04-26 05:55 | 33.93791 | -116.57291 | 14283 ft | 440 kts | 123° |
| 2026-04-26 05:55 | 33.92264 | -116.54083 | 13901 ft | 434 kts | 123° |
| 2026-04-26 05:55 | 33.90758 | -116.50948 | 13523 ft | 430 kts | 124° |
| 2026-04-26 05:56 | 33.89233 | -116.47837 | 13149 ft | 427 kts | 123° |
| 2026-04-26 05:56 | 33.87712 | -116.44753 | 12777 ft | 424 kts | 123° |
| 2026-04-26 05:56 | 33.86190 | -116.41682 | 12398 ft | 422 kts | 124° |
| 2026-04-26 05:56 | 33.84671 | -116.38650 | 12020 ft | 420 kts | 123° |
| 2026-04-26 05:57 | 33.83139 | -116.35616 | 11643 ft | 417 kts | 123° |
| 2026-04-26 05:57 | 33.81691 | -116.32707 | 11278 ft | 398 kts | 123° |
| 2026-04-26 05:57 | 33.80283 | -116.29874 | 10913 ft | 381 kts | 124° |
| 2026-04-26 05:57 | 33.78937 | -116.27193 | 10549 ft | 366 kts | 124° |
| 2026-04-26 05:58 | 33.77622 | -116.24585 | 10180 ft | 354 kts | 124° |
| 2026-04-26 05:58 | 33.76357 | -116.22105 | 9927 ft | 339 kts | 127° |
| 2026-04-26 05:58 | 33.74764 | -116.20170 | 9898 ft | 311 kts | 152° |
| 2026-04-26 05:58 | 33.72845 | -116.19106 | 9907 ft | 291 kts | 167° |
| 2026-04-26 05:59 | 33.70873 | -116.18621 | 9892 ft | 288 kts | 179° |
| 2026-04-26 05:59 | 33.68882 | -116.18648 | 9874 ft | 284 kts | 191° |
| 2026-04-26 05:59 | 33.66931 | -116.19173 | 9866 ft | 280 kts | 204° |
| 2026-04-26 05:59 | 33.65118 | -116.19979 | 9878 ft | 278 kts | 206° |
| 2026-04-26 06:00 | 33.63290 | -116.20811 | 9899 ft | 277 kts | 206° |
| 2026-04-26 06:00 | 33.61476 | -116.21612 | 9920 ft | 278 kts | 202° |
| 2026-04-26 06:00 | 33.59504 | -116.21787 | 9896 ft | 289 kts | 175° |
| 2026-04-26 06:00 | 33.57531 | -116.21207 | 9892 ft | 292 kts | 170° |
| 2026-04-26 06:01 | 33.55536 | -116.20579 | 9909 ft | 292 kts | 170° |
| 2026-04-26 06:01 | 33.53545 | -116.19959 | 9907 ft | 292 kts | 171° |
| 2026-04-26 06:01 | 33.51582 | -116.19348 | 9907 ft | 292 kts | 171° |
| 2026-04-26 06:01 | 33.49573 | -116.18723 | 9907 ft | 292 kts | 171° |
| 2026-04-26 06:02 | 33.47611 | -116.18113 | 9912 ft | 292 kts | 171° |
| 2026-04-26 06:02 | 33.45629 | -116.17497 | 9932 ft | 291 kts | 171° |
| 2026-04-26 06:02 | 33.43679 | -116.16892 | 9919 ft | 291 kts | 171° |
| 2026-04-26 06:02 | 33.41691 | -116.16275 | 9916 ft | 292 kts | 171° |
| 2026-04-26 06:03 | 33.39722 | -116.15665 | 9904 ft | 292 kts | 172° |
| 2026-04-26 06:03 | 33.37742 | -116.15050 | 9733 ft | 294 kts | 171° |
| 2026-04-26 06:03 | 33.35832 | -116.14108 | 9322 ft | 303 kts | 154° |
| 2026-04-26 06:03 | 33.34206 | -116.12430 | 8742 ft | 314 kts | 133° |
| 2026-04-26 06:04 | 33.33123 | -116.10114 | 7956 ft | 325 kts | 109° |
| 2026-04-26 06:04 | 33.32859 | -116.07474 | 7256 ft | 326 kts | 84° |
| 2026-04-26 06:04 | 33.33566 | -116.04929 | 6562 ft | 321 kts | 53° |
| 2026-04-26 06:04 | 33.35067 | -116.03028 | 5865 ft | 310 kts | 31° |
| 2026-04-26 06:05 | 33.36956 | -116.01875 | 5144 ft | 299 kts | 12° |
| 2026-04-26 06:05 | 33.38983 | -116.01510 | 4302 ft | 292 kts | 354° |
| 2026-04-26 06:05 | 33.40965 | -116.01923 | 3616 ft | 280 kts | 335° |
| 2026-04-26 06:05 | 33.42617 | -116.02942 | 3505 ft | 253 kts | 321° |
| 2026-04-26 06:06 | 33.43971 | -116.04213 | 3302 ft | 241 kts | 315° |
| 2026-04-26 06:06 | 33.45226 | -116.05494 | 3173 ft | 229 kts | 316° |
| 2026-04-26 06:06 | 33.46411 | -116.06699 | 3024 ft | 216 kts | 316° |
| 2026-04-26 06:06 | 33.47572 | -116.07886 | 2893 ft | 221 kts | 316° |
| 2026-04-26 06:07 | 33.48737 | -116.09076 | 2613 ft | 213 kts | 317° |
| 2026-04-26 06:07 | 33.49845 | -116.10203 | 2356 ft | 200 kts | 317° |
| 2026-04-26 06:07 | 33.50882 | -116.11262 | 2035 ft | 193 kts | 316° |
| 2026-04-26 06:07 | 33.51898 | -116.12300 | 1768 ft | 185 kts | 316° |
| 2026-04-26 06:08 | 33.52852 | -116.13273 | 1488 ft | 171 kts | 317° |
| 2026-04-26 06:08 | 33.53808 | -116.13911 | 1282 ft | 144 kts | 340° |
| 2026-04-26 06:08 | 33.54760 | -116.14150 | 1103 ft | 137 kts | 344° |
| 2026-04-26 06:08 | 33.55662 | -116.14458 | 929 ft | 133 kts | 336° |
| 2026-04-26 06:09 | 33.56554 | -116.14827 | 822 ft | 134 kts | 338° |
| 2026-04-26 06:09 | 33.57453 | -116.15166 | 647 ft | 133 kts | 340° |
| 2026-04-26 06:09 | 33.58353 | -116.15430 | 459 ft | 132 kts | 346° |
| 2026-04-26 06:09 | 33.59257 | -116.15578 | 325 ft | 129 kts | 353° |
| 2026-04-26 06:10 | 33.60173 | -116.15630 | 202 ft | 132 kts | 355° |
| 2026-04-26 06:10 | 33.61092 | -116.15640 | 21 ft | 131 kts | 357° |
| 2026-04-26 06:10 | 33.61967 | -116.15640 | -102 ft | 113 kts | 358° |
| 2026-04-26 06:10 | 33.62625 | -116.15642 | -102 ft | 77 kts | 359° |
| 2026-04-26 06:11 | 33.62903 | -116.15642 | -99 ft | 14 kts | 357° |
| 2026-04-26 06:11 | 33.63081 | -116.15643 | -99 ft | 39 kts | 1° |
| 2026-04-26 06:11 | 33.63302 | -116.15640 | -98 ft | 23 kts | 2° |
| 2026-04-26 06:11 | 33.63408 | -116.15678 | -96 ft | 7 kts | 297° |
| 2026-04-26 06:12 | 33.63414 | -116.15767 | -96 ft | 15 kts | 269° |
| 2026-04-26 06:12 | 33.63413 | -116.15881 | -94 ft | 10 kts | 270° |
| 2026-04-26 06:12 | 33.63414 | -116.15989 | -93 ft | 15 kts | 269° |
| 2026-04-26 06:12 | 33.63413 | -116.16098 | -93 ft | 10 kts | 270° |
| 2026-04-26 06:13 | 33.63414 | -116.16176 | -91 ft | 9 kts | 279° |
| 2026-04-26 06:13 | 33.63470 | -116.16196 | -91 ft | 8 kts | 0° |
| 2026-04-26 06:13 | 33.63523 | -116.16196 | -91 ft | 5 kts | 354° |
| 2026-04-26 06:13 | 33.63544 | -116.16241 | -91 ft | 8 kts | 267° |
| 2026-04-26 06:14 | 33.63544 | -116.16252 | -91 ft | 0 kts | 267° |